createdAt,value
2022-11-08T00:01:34.441Z,100940.50
2022-11-08T00:04:02.544Z,100947.44
2022-11-08T00:06:47.944Z,100947.62
2022-11-08T00:09:33.024Z,100943.81
2022-11-08T00:12:18.643Z,100937.84
2022-11-08T00:14:49.234Z,100937.16
2022-11-08T00:17:16.795Z,100940.53
2022-11-08T00:19:44.024Z,100939.09
2022-11-08T00:22:11.710Z,100937.84
2022-11-08T00:24:38.624Z,100933.41
2022-11-08T00:27:06.676Z,100935.81
2022-11-08T00:29:36.963Z,100932.63
2022-11-08T00:32:04.572Z,100942.37
2022-11-08T00:34:32.525Z,100933.53
2022-11-08T00:36:59.705Z,100935.03
2022-11-08T00:39:26.603Z,100927.38
2022-11-08T00:41:53.396Z,100938.47
2022-11-08T00:44:20.230Z,100930.09
2022-11-08T00:46:47.076Z,100936.78
2022-11-08T00:49:13.898Z,100928.47
2022-11-08T00:51:41.125Z,100929.53
2022-11-08T00:54:08.703Z,100928.69
2022-11-08T00:56:35.812Z,100923.44
2022-11-08T00:59:02.723Z,100924.09
2022-11-08T01:01:29.550Z,100929.47
2022-11-08T01:03:56.513Z,100919.53
2022-11-08T01:06:24.153Z,100924.81
2022-11-08T01:08:51.122Z,100919.69
2022-11-08T01:11:19.462Z,100930.12
2022-11-08T01:13:46.536Z,100927.78
2022-11-08T01:16:19.643Z,100921.81
2022-11-08T01:18:47.176Z,100932.91
2022-11-08T01:21:14.437Z,100928.06
2022-11-08T01:23:41.435Z,100926.41
2022-11-08T01:26:10.802Z,100927.09
2022-11-08T01:28:38.076Z,100926.75
2022-11-08T01:31:06.433Z,100920.94
2022-11-08T01:33:33.534Z,100917.63
2022-11-08T01:36:00.354Z,100914.34
2022-11-08T01:38:27.205Z,100913.97
2022-11-08T01:40:53.963Z,100911.31
2022-11-08T01:43:29.978Z,100906.34
2022-11-08T01:46:15.468Z,100903.62
2022-11-08T01:48:44.992Z,100901.00
2022-11-08T01:51:12.565Z,100902.59
2022-11-08T01:53:39.623Z,100897.25
2022-11-08T01:56:07.094Z,100894.00
2022-11-08T01:58:35.083Z,100899.91
2022-11-08T02:01:02.680Z,100896.84
2022-11-08T02:03:31.033Z,100900.66
2022-11-08T02:05:57.834Z,100897.28
2022-11-08T02:08:38.703Z,100898.63
2022-11-08T02:11:06.514Z,100893.66
2022-11-08T02:13:34.746Z,100885.00
2022-11-08T02:16:01.563Z,100891.78
2022-11-08T02:18:31.105Z,100887.53
2022-11-08T02:21:01.123Z,100893.91
2022-11-08T02:23:30.333Z,100889.91
2022-11-08T02:25:57.133Z,100889.66
2022-11-08T02:28:23.843Z,100884.06
2022-11-08T02:30:50.644Z,100880.78
2022-11-08T02:33:18.930Z,100886.00
2022-11-08T02:35:48.983Z,100892.22
2022-11-08T02:38:16.786Z,100894.00
2022-11-08T02:40:52.049Z,100891.81
2022-11-08T02:43:18.963Z,100897.44
2022-11-08T02:45:45.715Z,100905.06
2022-11-08T02:48:13.174Z,100894.34
2022-11-08T02:50:40.355Z,100902.16
2022-11-08T02:53:08.033Z,100893.63
2022-11-08T02:55:36.204Z,100898.94
2022-11-08T02:58:03.364Z,100899.38
2022-11-08T03:00:30.512Z,100900.16
2022-11-08T03:02:58.052Z,100902.88
2022-11-08T03:05:26.032Z,100909.91
2022-11-08T03:07:53.873Z,100905.53
2022-11-08T03:10:20.972Z,100906.56
2022-11-08T03:12:47.864Z,100909.56
2022-11-08T03:15:15.383Z,100912.31
2022-11-08T03:24:56.371Z,100908.94
2022-11-08T03:28:10.732Z,100908.81
2022-11-08T03:37:49.613Z,100902.75
2022-11-08T03:40:16.513Z,100911.91
2022-11-08T03:42:43.552Z,100897.38
2022-11-08T03:45:11.452Z,100907.03
2022-11-08T03:47:39.292Z,100905.09
2022-11-08T03:50:09.363Z,100892.88
2022-11-08T03:52:48.092Z,100898.81
2022-11-08T03:55:15.363Z,100895.75
2022-11-08T03:57:42.363Z,100897.03
2022-11-08T04:00:10.272Z,100896.03
2022-11-08T04:02:37.089Z,100895.41
2022-11-08T04:05:04.224Z,100886.06
2022-11-08T04:07:31.059Z,100885.47
2022-11-08T04:09:57.953Z,100889.00
2022-11-08T04:12:43.551Z,100893.09
2022-11-08T04:36:27.175Z,100874.37
2022-11-08T04:42:03.385Z,100866.03
2022-11-08T04:44:30.192Z,100873.94
2022-11-08T04:46:57.043Z,100873.72
2022-11-08T04:49:23.922Z,100873.72
2022-11-08T04:51:50.796Z,100873.63
2022-11-08T04:54:17.712Z,100870.00
2022-11-08T04:56:44.561Z,100869.88
2022-11-08T04:59:12.302Z,100868.13
2022-11-08T05:01:39.564Z,100864.16
2022-11-08T05:04:06.513Z,100860.50
2022-11-08T05:06:33.264Z,100859.66
2022-11-08T05:09:00.502Z,100862.03
2022-11-08T05:11:28.568Z,100860.63
2022-11-08T05:13:55.761Z,100860.63
2022-11-08T05:16:24.075Z,100866.44
2022-11-08T05:18:50.951Z,100868.28
2022-11-08T05:21:36.972Z,100863.22
2022-11-08T05:24:04.735Z,100858.13
2022-11-08T05:26:35.876Z,100863.38
2022-11-08T05:29:03.160Z,100859.69
2022-11-08T05:31:30.022Z,100857.91
2022-11-08T05:33:57.027Z,100856.81
2022-11-08T05:36:26.654Z,100858.47
2022-11-08T05:38:56.409Z,100859.63
2022-11-08T05:41:24.183Z,100855.75
2022-11-08T05:43:54.502Z,100858.00
2022-11-08T05:46:22.717Z,100857.59
2022-11-08T05:48:49.880Z,100848.94
2022-11-08T05:51:18.083Z,100848.19
2022-11-08T05:53:50.000Z,100847.22
2022-11-08T05:56:25.132Z,100855.88
2022-11-08T05:58:51.963Z,100848.62
2022-11-08T06:01:19.472Z,100845.06
2022-11-08T06:03:47.550Z,100840.37
2022-11-08T06:06:16.183Z,100842.28
2022-11-08T06:08:47.496Z,100851.75
2022-11-08T06:11:18.214Z,100858.22
2022-11-08T06:13:45.072Z,100857.72
2022-11-08T06:16:13.043Z,100856.56
2022-11-08T06:18:39.922Z,100862.62
2022-11-08T06:21:07.762Z,100852.19
2022-11-08T06:23:35.044Z,100853.59
2022-11-08T06:26:02.012Z,100851.84
2022-11-08T06:28:28.814Z,100860.06
2022-11-08T06:30:55.511Z,100858.53
2022-11-08T06:33:22.383Z,100854.94
2022-11-08T06:35:49.154Z,100856.66
2022-11-08T06:38:15.992Z,100856.03
2022-11-08T06:40:43.011Z,100851.69
2022-11-08T06:43:14.945Z,100852.56
2022-11-08T06:45:44.932Z,100858.59
2022-11-08T06:48:11.780Z,100855.09
2022-11-08T06:50:42.881Z,100857.56
2022-11-08T06:53:12.136Z,100858.59
2022-11-08T06:55:40.017Z,100852.12
2022-11-08T06:58:07.465Z,100854.03
2022-11-08T07:00:36.555Z,100852.84
2022-11-08T07:03:04.032Z,100860.69
2022-11-08T07:05:32.187Z,100857.28
2022-11-08T07:07:59.290Z,100861.66
2022-11-08T07:10:27.022Z,100863.50
2022-11-08T07:13:00.985Z,100873.44
2022-11-08T07:15:28.426Z,100865.94
2022-11-08T07:17:55.529Z,100879.25
2022-11-08T07:20:51.710Z,100875.88
2022-11-08T07:23:57.151Z,100871.47
2022-11-08T07:42:57.183Z,100883.28
2022-11-08T07:45:26.881Z,100879.62
2022-11-08T07:48:12.287Z,100869.97
2022-11-08T07:51:21.276Z,100870.94
2022-11-08T07:53:50.540Z,100873.22
2022-11-08T07:56:23.774Z,100874.69
2022-11-08T07:58:59.388Z,100868.84
2022-11-08T08:01:36.680Z,100871.69
2022-11-08T08:04:03.945Z,100878.31
2022-11-08T08:06:32.295Z,100889.34
2022-11-08T08:08:59.252Z,100883.84
2022-11-08T08:11:32.416Z,100883.56
2022-11-08T08:14:03.584Z,100883.38
2022-11-08T08:16:31.744Z,100890.91
2022-11-08T08:19:17.794Z,100884.47
2022-11-08T08:21:46.016Z,100878.19
2022-11-08T08:27:17.921Z,100864.75
2022-11-08T08:29:44.893Z,100862.09
2022-11-08T08:32:12.477Z,100866.84
2022-11-08T08:34:48.103Z,100861.91
2022-11-08T08:37:18.993Z,100869.00
2022-11-08T08:39:50.077Z,100870.78
2022-11-08T08:42:32.284Z,100865.56
2022-11-08T08:45:04.504Z,100863.53
2022-11-08T08:47:31.814Z,100864.53
2022-11-08T08:49:59.892Z,100870.56
2022-11-08T08:52:34.141Z,100864.97
2022-11-08T08:55:04.675Z,100876.63
2022-11-08T08:58:02.779Z,100883.38
2022-11-08T09:03:23.972Z,100891.16
2022-11-08T09:05:54.133Z,100891.47
2022-11-08T09:08:23.141Z,100885.84
2022-11-08T09:10:57.292Z,100885.13
2022-11-08T09:13:24.582Z,100885.16
2022-11-08T09:15:54.304Z,100884.63
2022-11-08T09:18:26.706Z,100884.66
2022-11-08T09:20:56.434Z,100884.31
2022-11-08T09:23:23.416Z,100872.84
2022-11-08T09:25:50.257Z,100868.84
2022-11-08T09:28:17.632Z,100877.63
2022-11-08T09:30:44.586Z,100878.59
2022-11-08T09:33:14.165Z,100875.16
2022-11-08T09:35:42.702Z,100867.84
2022-11-08T09:38:09.627Z,100865.03
2022-11-08T09:40:41.752Z,100864.56
2022-11-08T09:43:25.728Z,100871.59
2022-11-08T09:45:54.072Z,100873.84
2022-11-08T09:48:26.673Z,100870.72
2022-11-08T09:50:54.692Z,100870.59
2022-11-08T09:53:50.622Z,100861.09
2022-11-08T09:56:37.310Z,100856.91
2022-11-08T09:59:23.604Z,100853.59
2022-11-08T10:01:50.584Z,100863.13
2022-11-08T10:04:22.625Z,100856.38
2022-11-08T10:07:15.846Z,100850.87
2022-11-08T10:09:46.166Z,100845.16
2022-11-08T10:12:26.202Z,100834.97
2022-11-08T10:14:59.983Z,100837.69
2022-11-08T10:17:39.554Z,100826.63
2022-11-08T10:20:36.059Z,100829.28
2022-11-08T10:23:10.694Z,100825.00
2022-11-08T10:25:45.520Z,100832.91
2022-11-08T10:28:27.038Z,100827.56
2022-11-08T10:31:00.226Z,100817.41
2022-11-08T10:33:27.381Z,100816.78
2022-11-08T10:36:05.386Z,100802.72
2022-11-08T10:38:44.317Z,100798.66
2022-11-08T10:41:17.463Z,100792.13
2022-11-08T10:44:06.108Z,100789.34
2022-11-08T10:46:33.013Z,100791.78
2022-11-08T10:49:11.282Z,100789.34
2022-11-08T10:51:48.098Z,100792.78
2022-11-08T10:54:54.923Z,100804.25
2022-11-08T10:57:34.874Z,100794.38
2022-11-08T11:00:20.326Z,100788.31
2022-11-08T11:02:50.760Z,100781.28
2022-11-08T11:05:24.936Z,100786.56
2022-11-08T11:08:00.640Z,100785.38
2022-11-08T11:10:30.721Z,100780.56
2022-11-08T11:13:03.964Z,100787.34
2022-11-08T11:15:38.174Z,100780.38
2022-11-08T11:18:06.456Z,100779.34
2022-11-08T11:21:12.358Z,100770.16
2022-11-08T11:23:41.494Z,100774.66
2022-11-08T11:26:11.182Z,100767.81
2022-11-08T11:28:38.046Z,100758.31
2022-11-08T11:31:15.725Z,100765.91
2022-11-08T11:33:49.461Z,100757.34
2022-11-08T11:36:20.781Z,100757.78
2022-11-08T11:39:04.391Z,100753.44
2022-11-08T11:41:39.095Z,100755.19
2022-11-08T11:44:15.632Z,100747.06
2022-11-08T11:46:45.606Z,100746.66
2022-11-08T11:49:20.886Z,100745.06
2022-11-08T11:51:48.826Z,100737.16
2022-11-08T11:54:16.430Z,100732.53
2022-11-08T11:56:47.054Z,100735.00
2022-11-08T11:59:25.662Z,100727.22
2022-11-08T12:02:17.188Z,100724.63
2022-11-08T12:04:57.092Z,100719.38
2022-11-08T12:07:42.565Z,100727.66
2022-11-08T12:10:17.781Z,100715.91
2022-11-08T12:16:16.357Z,100706.41
2022-11-08T12:19:03.793Z,100707.69
2022-11-08T12:21:52.163Z,100699.41
2022-11-08T12:24:37.916Z,100707.91
2022-11-08T12:27:08.971Z,100702.88
2022-11-08T12:29:54.812Z,100696.84
2022-11-08T12:32:44.283Z,100686.16
2022-11-08T12:35:36.666Z,100692.31
2022-11-08T12:38:20.049Z,100683.41
2022-11-08T12:41:13.842Z,100685.22
2022-11-08T12:43:43.885Z,100686.34
2022-11-08T12:46:18.745Z,100673.53
2022-11-08T12:48:55.063Z,100687.06
2022-11-08T12:51:40.592Z,100682.03
2022-11-08T12:54:18.193Z,100693.72
2022-11-08T12:56:48.523Z,100691.78
2022-11-08T12:59:18.520Z,100678.69
2022-11-08T13:01:47.884Z,100677.75
2022-11-08T13:04:19.174Z,100679.28
2022-11-08T13:06:57.787Z,100678.63
2022-11-08T13:09:36.350Z,100680.13
2022-11-08T13:12:26.362Z,100681.44
2022-11-08T13:14:55.278Z,100680.09
2022-11-08T13:17:25.221Z,100683.69
2022-11-08T13:20:08.372Z,100676.34
2022-11-08T13:22:45.801Z,100673.09
2022-11-08T13:25:31.390Z,100675.59
2022-11-08T13:27:59.041Z,100667.31
2022-11-08T13:30:37.301Z,100675.25
2022-11-08T13:33:27.031Z,100663.69
2022-11-08T13:36:08.753Z,100662.88
2022-11-08T13:38:50.970Z,100665.22
2022-11-08T13:41:22.552Z,100655.88
2022-11-08T13:44:01.536Z,100651.66
2022-11-08T13:46:29.832Z,100655.56
2022-11-08T13:49:03.901Z,100659.31
2022-11-08T13:51:36.700Z,100653.09
2022-11-08T13:54:03.538Z,100657.00
2022-11-08T13:56:33.314Z,100648.69
2022-11-08T13:59:00.152Z,100647.41
2022-11-08T14:01:38.436Z,100652.16
2022-11-08T14:04:22.913Z,100648.56
2022-11-08T14:06:55.999Z,100654.81
2022-11-08T14:09:39.293Z,100646.44
2022-11-08T14:12:15.493Z,100648.97
2022-11-08T14:14:56.771Z,100644.25
2022-11-08T14:17:30.140Z,100647.72
2022-11-08T14:19:58.793Z,100651.09
2022-11-08T14:22:27.682Z,100640.78
2022-11-08T14:25:20.845Z,100647.75
2022-11-08T14:27:47.663Z,100642.03
2022-11-08T14:30:16.006Z,100644.94
2022-11-08T14:32:42.921Z,100647.47
2022-11-08T14:35:26.959Z,100656.19
2022-11-08T14:37:53.942Z,100656.69
2022-11-08T14:40:28.639Z,100653.81
2022-11-08T14:42:56.198Z,100651.91
2022-11-08T14:45:48.504Z,100652.88
2022-11-08T14:48:21.654Z,100641.69
2022-11-08T14:50:48.722Z,100637.66
2022-11-08T14:53:27.484Z,100640.75
2022-11-08T14:55:56.646Z,100642.66
2022-11-08T14:58:30.306Z,100638.81
2022-11-08T15:00:58.162Z,100642.19
2022-11-08T15:03:28.684Z,100643.22
2022-11-08T15:05:56.969Z,100641.22
2022-11-08T15:08:29.297Z,100635.25
2022-11-08T15:11:11.438Z,100639.75
2022-11-08T15:13:51.679Z,100636.53
2022-11-08T15:16:21.314Z,100635.97
2022-11-08T15:18:50.675Z,100641.06
2022-11-08T15:21:29.414Z,100639.91
2022-11-08T15:24:27.483Z,100636.66
2022-11-08T15:27:20.243Z,100649.00
2022-11-08T15:29:54.116Z,100637.81
2022-11-08T15:32:22.113Z,100653.19
2022-11-08T15:34:49.366Z,100656.03
2022-11-08T15:37:20.633Z,100660.16
2022-11-08T15:39:48.092Z,100655.47
2022-11-08T15:42:16.263Z,100659.69
2022-11-08T15:44:59.592Z,100665.50
2022-11-08T15:47:44.097Z,100665.53
2022-11-08T15:50:14.343Z,100665.25
2022-11-08T15:52:41.609Z,100667.09
2022-11-08T15:55:08.955Z,100664.69
2022-11-08T15:57:38.963Z,100663.84
2022-11-08T16:00:05.951Z,100656.19
2022-11-08T16:02:32.624Z,100663.63
2022-11-08T16:04:59.932Z,100661.88
2022-11-08T16:07:26.664Z,100662.81
2022-11-08T16:09:53.254Z,100662.12
2022-11-08T16:12:19.996Z,100668.13
2022-11-08T16:14:46.696Z,100665.00
2022-11-08T16:17:14.368Z,100670.66
2022-11-08T16:19:41.221Z,100669.47
2022-11-08T16:22:07.877Z,100670.13
2022-11-08T16:24:34.818Z,100669.25
2022-11-08T16:27:01.676Z,100672.81
2022-11-08T16:29:31.262Z,100671.16
2022-11-08T16:31:58.005Z,100676.03
2022-11-08T16:34:24.754Z,100672.81
2022-11-08T16:36:52.233Z,100677.78
2022-11-08T16:39:19.634Z,100673.31
2022-11-08T16:41:46.596Z,100681.34
2022-11-08T16:44:13.861Z,100678.38
2022-11-08T16:46:40.994Z,100681.59
2022-11-08T16:49:15.697Z,100682.41
2022-11-08T16:51:45.058Z,100680.19
2022-11-08T16:54:24.168Z,100686.12
2022-11-08T16:56:51.715Z,100676.28
2022-11-08T16:59:18.588Z,100675.31
2022-11-08T17:01:45.789Z,100678.97
2022-11-08T17:04:12.518Z,100682.97
2022-11-08T17:06:39.376Z,100693.28
2022-11-08T17:09:06.275Z,100684.47
2022-11-08T17:11:33.027Z,100693.19
2022-11-08T17:13:59.800Z,100687.09
2022-11-08T17:16:27.435Z,100692.19
2022-11-08T17:18:54.178Z,100691.94
2022-11-08T17:24:08.347Z,100688.53
2022-11-08T17:26:35.137Z,100687.44
2022-11-08T17:29:01.957Z,100691.44
2022-11-08T17:31:28.685Z,100693.78
2022-11-08T17:33:56.144Z,100693.59
2022-11-08T17:36:23.160Z,100694.31
2022-11-08T17:38:49.992Z,100693.22
2022-11-08T17:41:16.841Z,100694.72
2022-11-08T17:43:43.568Z,100689.03
2022-11-08T17:46:14.568Z,100695.72
2022-11-08T17:48:41.436Z,100697.09
2022-11-08T17:51:08.828Z,100702.75
2022-11-08T17:53:35.761Z,100697.97
2022-11-08T17:56:04.095Z,100692.62
2022-11-08T17:58:34.350Z,100696.94
2022-11-08T18:01:02.670Z,100700.66
2022-11-08T18:03:29.797Z,100697.75
2022-11-08T18:05:57.807Z,100703.88
2022-11-08T18:08:27.103Z,100705.22
2022-11-08T18:10:54.687Z,100693.31
2022-11-08T18:13:21.997Z,100703.06
2022-11-08T18:15:50.170Z,100694.91
2022-11-08T18:18:17.199Z,100697.69
2022-11-08T18:20:44.013Z,100704.72
2022-11-08T18:23:15.199Z,100698.66
2022-11-08T18:25:41.967Z,100695.09
2022-11-08T18:28:08.762Z,100696.72
2022-11-08T18:30:36.107Z,100697.50
2022-11-08T18:33:02.848Z,100700.69
2022-11-08T18:35:29.661Z,100696.03
2022-11-08T18:37:56.519Z,100694.66
2022-11-08T18:40:23.279Z,100694.59
2022-11-08T18:42:52.230Z,100689.69
2022-11-08T18:45:18.927Z,100696.62
2022-11-08T18:47:45.802Z,100697.25
2022-11-08T18:50:14.335Z,100687.59
2022-11-08T18:52:45.804Z,100691.81
2022-11-08T18:55:12.922Z,100691.03
2022-11-08T18:57:39.815Z,100696.91
2022-11-08T19:00:07.045Z,100695.00
2022-11-08T19:02:34.068Z,100694.09
2022-11-08T19:05:00.837Z,100698.53
2022-11-08T19:07:28.114Z,100697.03
2022-11-08T19:09:54.948Z,100695.13
2022-11-08T19:12:21.898Z,100694.16
2022-11-08T19:14:48.667Z,100702.88
2022-11-08T19:17:16.558Z,100703.19
2022-11-08T19:19:44.512Z,100697.81
2022-11-08T19:22:11.657Z,100702.38
2022-11-08T19:24:38.627Z,100705.09
2022-11-08T19:27:06.597Z,100703.25
2022-11-08T19:29:33.519Z,100710.22
2022-11-08T19:32:00.456Z,100703.41
2022-11-08T19:34:27.285Z,100716.38
2022-11-08T19:36:56.123Z,100717.16
2022-11-08T19:39:24.732Z,100714.41
2022-11-08T19:41:51.756Z,100720.59
2022-11-08T19:44:18.701Z,100719.66
2022-11-08T19:46:45.529Z,100722.53
2022-11-08T19:49:12.299Z,100719.13
2022-11-08T19:51:39.446Z,100723.53
2022-11-08T19:54:08.288Z,100721.59
2022-11-08T19:57:04.687Z,100719.69
2022-11-08T19:59:22.806Z,100721.59
2022-11-08T20:01:49.626Z,100727.75
2022-11-08T20:04:18.763Z,100720.75
2022-11-08T20:06:46.541Z,100720.78
2022-11-08T20:09:13.597Z,100732.03
2022-11-08T20:11:41.308Z,100725.97
2022-11-08T20:14:10.221Z,100724.03
2022-11-08T20:16:42.142Z,100727.88
2022-11-08T20:19:10.741Z,100719.69
2022-11-08T20:21:40.969Z,100737.38
2022-11-08T20:24:08.328Z,100723.09
2022-11-08T20:26:37.688Z,100724.38
2022-11-08T20:29:05.116Z,100726.16
2022-11-08T20:31:33.248Z,100725.94
2022-11-08T20:34:01.715Z,100724.06
2022-11-08T20:36:33.146Z,100723.25
2022-11-08T20:39:06.493Z,100720.59
2022-11-08T20:41:35.056Z,100728.56
2022-11-08T20:44:01.856Z,100723.19
2022-11-08T20:46:29.415Z,100723.94
2022-11-08T20:49:00.637Z,100731.16
2022-11-08T20:51:28.566Z,100728.94
2022-11-08T20:53:56.010Z,100741.03
2022-11-08T20:56:23.266Z,100732.28
2022-11-08T20:58:50.712Z,100735.66
2022-11-08T21:01:18.925Z,100739.22
2022-11-08T21:03:46.080Z,100735.50
2022-11-08T21:06:14.674Z,100736.31
2022-11-08T21:11:30.448Z,100736.41
2022-11-08T21:13:57.594Z,100732.47
2022-11-08T21:16:30.424Z,100729.59
2022-11-08T21:18:58.930Z,100728.66
2022-11-08T21:21:26.255Z,100727.06
2022-11-08T21:23:54.785Z,100730.59
2022-11-08T21:26:22.259Z,100720.75
2022-11-08T21:28:49.329Z,100720.91
2022-11-08T21:31:16.153Z,100724.28
2022-11-08T21:33:43.397Z,100726.78
2022-11-08T21:36:10.267Z,100732.06
2022-11-08T21:38:37.797Z,100726.19
2022-11-08T21:41:08.527Z,100724.53
2022-11-08T21:43:37.406Z,100735.09
2022-11-08T21:46:15.181Z,100723.72
2022-11-08T21:48:42.426Z,100722.50
2022-11-08T21:51:09.801Z,100714.50
2022-11-08T21:53:45.195Z,100714.56
2022-11-08T21:56:16.909Z,100704.59
2022-11-08T21:58:43.800Z,100711.22
2022-11-08T22:01:10.646Z,100705.69
2022-11-08T22:03:37.370Z,100694.59
2022-11-08T22:06:04.069Z,100691.56
2022-11-08T22:08:30.786Z,100692.41
2022-11-08T22:10:57.484Z,100701.84
2022-11-08T22:13:25.379Z,100702.25
2022-11-08T22:15:52.068Z,100695.41
2022-11-08T22:18:26.500Z,100702.72
2022-11-08T22:21:22.086Z,100698.94
2022-11-08T22:23:48.846Z,100698.56
2022-11-08T22:26:15.735Z,100700.34
2022-11-08T22:28:42.426Z,100695.13
2022-11-08T22:31:09.152Z,100700.56
2022-11-08T22:33:35.856Z,100690.19
2022-11-08T22:36:02.496Z,100705.37
2022-11-08T22:38:29.228Z,100690.53
2022-11-08T22:40:56.176Z,100697.47
2022-11-08T22:43:23.015Z,100693.66
2022-11-08T22:45:49.689Z,100693.09
2022-11-08T22:48:17.434Z,100699.81
2022-11-08T22:50:44.566Z,100695.03
2022-11-08T22:53:11.333Z,100700.41
2022-11-08T22:55:38.015Z,100693.31
2022-11-08T22:58:04.764Z,100698.72
2022-11-08T23:00:31.627Z,100689.13
2022-11-08T23:02:58.316Z,100686.38
2022-11-08T23:05:25.000Z,100694.50
2022-11-08T23:07:51.787Z,100694.94
2022-11-08T23:10:18.515Z,100691.34
2022-11-08T23:13:04.017Z,100691.47
2022-11-08T23:15:52.902Z,100687.84
2022-11-08T23:18:23.104Z,100685.44
2022-11-08T23:21:13.002Z,100681.16
2022-11-08T23:24:02.615Z,100690.84
2022-11-08T23:26:49.790Z,100686.88
2022-11-08T23:29:35.157Z,100688.94
2022-11-08T23:32:01.927Z,100684.66
2022-11-08T23:34:29.236Z,100689.81
2022-11-08T23:36:56.056Z,100683.63
2022-11-08T23:39:22.796Z,100689.09
2022-11-08T23:42:08.282Z,100688.47
2022-11-08T23:44:35.028Z,100686.44
2022-11-08T23:47:01.926Z,100682.25
2022-11-08T23:49:28.819Z,100680.53
2022-11-08T23:51:55.546Z,100676.91
2022-11-08T23:54:22.318Z,100677.00
2022-11-08T23:56:49.300Z,100677.94
2022-11-08T23:59:16.256Z,100676.19
